Time;durP1;ratioP1;P1;durP2;ratioP2;P2;SDS_P1;SDS_P2;PMS_P1;PMS_P2;Temp;Humidity;BMP_temperature;BMP_pressure;BME280_temperature;BME280_humidity;BME280_pressure;Samples;Min_cycle;Max_cycle;Signal;HPM_P1;HPM_P2
2022/05/31 00:00:07;;;;;;;4.75;1.40;;;;;;;12.17;64.21;100142.72;5071849;28;20024;-83
2022/05/31 00:02:33;;;;;;;3.67;1.52;;;;;;;12.14;64.32;100137.69;5071667;28;20086;-83
2022/05/31 00:04:58;;;;;;;4.00;1.40;;;;;;;12.19;63.88;100135.53;5071656;28;20025;-84
2022/05/31 00:07:24;;;;;;;2.88;1.20;;;;;;;12.28;63.95;100143.56;5070406;28;20466;-84
2022/05/31 00:09:49;;;;;;;3.85;1.00;;;;;;;12.30;64.03;100146.91;5071685;28;20074;-83
2022/05/31 00:12:15;;;;;;;2.47;1.10;;;;;;;12.32;64.51;100146.75;5071524;28;20496;-84
2022/05/31 00:14:41;;;;;;;3.42;1.58;;;;;;;12.44;63.99;100147.56;5071553;28;20086;-84
2022/05/31 00:17:06;;;;;;;2.30;1.30;;;;;;;12.49;63.75;100143.63;5071663;28;20025;-84
2022/05/31 00:19:32;;;;;;;2.65;1.15;;;;;;;12.53;63.66;100138.94;5071411;28;20078;-84
2022/05/31 00:22:18;;;;;;;2.83;1.42;;;;;;;12.48;64.48;100141.97;5071519;28;20490;-84
2022/05/31 00:24:43;;;;;;;2.97;1.15;;;;;;;12.58;64.30;100142.06;5071327;28;20032;-84
2022/05/31 00:27:11;;;;;;;2.75;1.20;;;;;;;12.63;64.05;100142.50;5071684;28;20157;-84
2022/05/31 00:29:37;;;;;;;2.15;1.27;;;;;;;12.66;64.52;100138.81;5071599;28;20036;-84
2022/05/31 00:32:06;;;;;;;4.10;1.38;;;;;;;12.77;64.35;100137.94;5071583;28;20032;-84
2022/05/31 00:34:33;;;;;;;3.15;0.95;;;;;;;12.78;63.89;100137.81;5071463;28;20025;-84
2022/05/31 00:37:00;;;;;;;4.18;1.23;;;;;;;12.79;63.81;100130.72;5071258;28;20541;-84
2022/05/31 00:39:26;;;;;;;2.42;1.10;;;;;;;12.77;63.52;100125.59;5071461;28;20548;-84
2022/05/31 00:42:13;;;;;;;3.65;1.20;;;;;;;12.93;63.69;100137.50;5071206;28;20049;-84
2022/05/31 00:44:38;;;;;;;3.95;1.40;;;;;;;12.93;63.72;100130.44;5071524;28;20020;-84
2022/05/31 00:47:08;;;;;;;2.78;1.20;;;;;;;12.98;63.74;100127.44;5071278;28;20039;-84
2022/05/31 00:49:41;;;;;;;4.55;1.17;;;;;;;13.07;63.42;100134.56;5071281;28;20063;-84
2022/05/31 00:52:17;;;;;;;4.85;1.60;;;;;;;12.99;63.00;100124.66;5070016;28;20056;-84
2022/05/31 00:54:57;;;;;;;2.92;1.20;;;;;;;13.09;63.88;100130.00;5069910;28;20031;-84
2022/05/31 00:57:23;;;;;;;5.93;1.20;;;;;;;13.09;63.84;100128.22;5071273;28;20029;-84
2022/05/31 00:59:53;;;;;;;4.35;1.55;;;;;;;13.16;64.12;100128.53;5071461;28;20078;-84
2022/05/31 01:02:19;;;;;;;3.25;1.40;;;;;;;13.22;64.12;100121.91;5074496;28;20462;-84
2022/05/31 01:04:55;;;;;;;6.32;1.77;;;;;;;13.20;63.07;100121.22;5073713;28;20036;-84
2022/05/31 01:07:22;;;;;;;7.57;1.27;;;;;;;13.11;63.79;100122.81;5073521;28;20554;-84
2022/05/31 01:09:48;;;;;;;3.03;1.38;;;;;;;12.87;64.75;100128.31;5074959;28;20082;-84
2022/05/31 01:12:15;;;;;;;3.22;1.15;;;;;;;12.97;65.13;100120.47;5074681;28;20051;-84
2022/05/31 01:14:41;;;;;;;4.28;1.15;;;;;;;12.95;64.95;100122.41;5074729;28;20039;-84
2022/05/31 01:17:14;;;;;;;3.20;1.20;;;;;;;13.10;64.70;100127.25;5074596;28;20016;-84
2022/05/31 01:19:59;;;;;;;4.18;1.27;;;;;;;13.15;64.57;100128.66;5074612;28;20033;-84
2022/05/31 01:22:39;;;;;;;2.85;1.48;;;;;;;13.16;65.17;100130.34;5074406;28;20033;-84
2022/05/31 01:25:32;;;;;;;3.13;1.35;;;;;;;13.03;65.67;100126.09;5074403;28;20020;-84
2022/05/31 01:28:28;;;;;;;2.17;1.10;;;;;;;13.01;65.79;100121.91;5074503;28;20571;-84
2022/05/31 01:30:59;;;;;;;2.95;1.27;;;;;;;13.12;65.45;100115.75;5073111;28;20569;-84
2022/05/31 01:33:33;;;;;;;2.88;1.10;;;;;;;13.16;65.00;100125.91;5072878;28;20029;-84
2022/05/31 01:36:09;;;;;;;4.57;1.15;;;;;;;13.21;65.49;100122.88;5072434;28;20042;-84
2022/05/31 01:38:42;;;;;;;3.63;1.13;;;;;;;13.19;65.54;100123.03;5072966;28;20036;-84
2022/05/31 01:41:21;;;;;;;2.65;1.20;;;;;;;13.26;64.78;100125.97;5074247;28;20082;-84
2022/05/31 01:43:51;;;;;;;4.28;1.40;;;;;;;13.28;63.92;100119.59;5073973;28;20078;-84
2022/05/31 01:46:23;;;;;;;2.97;1.45;;;;;;;13.36;63.94;100124.25;5073918;28;20028;-84
2022/05/31 01:48:49;;;;;;;7.30;1.60;;;;;;;13.29;63.53;100115.19;5074102;28;20513;-84
2022/05/31 01:51:15;;;;;;;6.03;2.00;;;;;;;13.34;63.15;100113.00;5074065;28;20479;-84
2022/05/31 01:53:41;;;;;;;5.55;1.83;;;;;;;13.40;63.29;100111.66;5073967;28;20028;-84
2022/05/31 01:56:08;;;;;;;4.80;1.30;;;;;;;13.45;63.35;100115.59;5073888;28;20032;-84
2022/05/31 01:58:36;;;;;;;1.80;1.05;;;;;;;13.44;63.99;100113.91;5073860;28;20021;-84
2022/05/31 02:01:02;;;;;;;4.45;1.50;;;;;;;13.46;64.07;100113.78;5073705;28;20017;-84
2022/05/31 02:03:30;;;;;;;3.05;1.33;;;;;;;13.38;64.41;100117.06;5073664;28;20024;-84
2022/05/31 02:05:55;;;;;;;4.30;1.83;;;;;;;13.44;64.29;100118.34;5073693;28;20024;-84
2022/05/31 02:08:24;;;;;;;3.65;1.65;;;;;;;13.25;64.39;100113.75;5073660;28;20025;-83
2022/05/31 02:10:50;;;;;;;4.55;1.42;;;;;;;13.17;65.16;100118.81;5073504;28;20031;-84
2022/05/31 02:13:18;;;;;;;6.18;1.60;;;;;;;13.20;65.01;100122.03;5071601;28;20075;-84
2022/05/31 02:15:44;;;;;;;4.45;1.70;;;;;;;13.23;64.36;100131.50;5073692;28;20387;-84
2022/05/31 02:18:12;;;;;;;10.80;3.25;;;;;;;13.26;64.58;100128.59;5073832;28;20024;-84
2022/05/31 02:20:38;;;;;;;2.58;1.77;;;;;;;13.21;65.26;100138.69;5073427;28;20478;-84
2022/05/31 02:23:04;;;;;;;3.03;1.40;;;;;;;13.31;64.85;100136.16;5073270;28;20182;-83
2022/05/31 02:25:29;;;;;;;5.88;1.55;;;;;;;13.27;65.18;100135.56;5071933;28;20107;-84
2022/05/31 02:27:55;;;;;;;4.95;1.60;;;;;;;13.37;64.57;100148.81;5073225;28;20039;-84
2022/05/31 02:30:20;;;;;;;3.65;1.60;;;;;;;13.42;63.74;100147.47;5073474;28;20021;-84
2022/05/31 02:32:46;;;;;;;2.53;1.40;;;;;;;13.51;63.41;100142.38;5073127;28;20027;-84
2022/05/31 02:35:12;;;;;;;3.35;1.23;;;;;;;13.51;63.44;100137.97;5073040;28;20115;-84
2022/05/31 02:37:39;;;;;;;4.05;1.60;;;;;;;13.71;62.24;100135.44;5071743;28;20060;-84
2022/05/31 02:40:06;;;;;;;4.15;1.33;;;;;;;13.62;62.58;100127.31;5073134;28;20051;-84
2022/05/31 02:42:32;;;;;;;4.28;1.08;;;;;;;13.70;62.31;100126.66;5072828;28;20119;-84
2022/05/31 02:44:57;;;;;;;3.10;1.17;;;;;;;13.61;62.73;100119.56;5071504;28;20033;-84
2022/05/31 02:47:23;;;;;;;8.80;1.60;;;;;;;13.52;62.66;100109.78;5072882;28;20067;-84
2022/05/31 02:49:49;;;;;;;1.58;1.20;;;;;;;13.54;62.48;100113.13;5072845;28;20032;-84
2022/05/31 02:52:15;;;;;;;3.38;1.10;;;;;;;13.39;62.94;100110.84;5072899;28;20032;-84
2022/05/31 02:54:41;;;;;;;3.95;1.23;;;;;;;13.42;62.78;100104.44;5072734;28;20020;-84
2022/05/31 02:57:07;;;;;;;4.38;1.27;;;;;;;13.37;62.97;100101.34;5072609;28;20025;-84
2022/05/31 02:59:32;;;;;;;3.40;1.20;;;;;;;13.29;62.84;100105.50;5072578;28;20024;-84
2022/05/31 03:01:57;;;;;;;2.15;1.10;;;;;;;13.21;63.44;100104.41;5072568;28;20040;-84
2022/05/31 03:04:23;;;;;;;1.70;1.00;;;;;;;13.05;63.24;100112.78;5071347;28;20017;-84
2022/05/31 03:06:49;;;;;;;6.65;1.58;;;;;;;12.60;65.34;100121.69;5071204;28;20035;-84
2022/05/31 03:09:15;;;;;;;5.18;1.60;;;;;;;12.68;64.69;100113.19;5071200;28;20474;-84
2022/05/31 03:11:56;;;;;;;2.85;1.60;;;;;;;12.72;65.01;100116.38;5071260;28;20135;-84
2022/05/31 03:14:22;;;;;;;4.70;1.20;;;;;;;12.55;64.05;100108.06;5072229;28;20025;-84
2022/05/31 03:16:52;;;;;;;1.63;0.90;;;;;;;12.42;64.51;100115.25;5072534;28;20479;-84
2022/05/31 03:19:24;;;;;;;3.35;1.20;;;;;;;12.40;64.45;100114.56;5072542;28;20051;-83
2022/05/31 03:21:57;;;;;;;3.30;1.02;;;;;;;12.24;64.32;100109.69;5072265;28;20052;-84
2022/05/31 03:24:28;;;;;;;4.07;1.30;;;;;;;12.16;64.60;100112.09;5072149;28;20082;-84
2022/05/31 03:26:56;;;;;;;3.33;1.17;;;;;;;12.03;65.05;100120.13;5072238;28;20086;-84
2022/05/31 03:29:22;;;;;;;5.30;1.38;;;;;;;11.63;65.48;100117.91;5072329;28;20047;-83
2022/05/31 03:31:47;;;;;;;2.35;1.20;;;;;;;11.75;65.78;100117.00;5070990;28;20489;-84
2022/05/31 03:34:13;;;;;;;3.25;2.00;;;;;;;11.77;65.19;100109.81;5071973;28;20017;-84
2022/05/31 03:36:38;;;;;;;4.18;1.30;;;;;;;11.74;65.75;100123.19;5071899;28;20090;-84
2022/05/31 03:39:04;;;;;;;1.83;1.10;;;;;;;11.85;65.28;100119.75;5071866;28;20020;-84
2022/05/31 03:41:34;;;;;;;3.13;1.17;;;;;;;11.97;65.01;100120.63;5071956;28;20035;-84
2022/05/31 03:43:59;;;;;;;2.47;1.15;;;;;;;11.89;65.13;100121.22;5071909;28;20548;-84
2022/05/31 03:46:25;;;;;;;2.72;1.27;;;;;;;11.82;65.76;100112.91;5070656;28;20063;-84
2022/05/31 03:48:50;;;;;;;2.65;1.65;;;;;;;11.84;65.28;100111.00;5070624;28;20020;-84
2022/05/31 03:51:16;;;;;;;2.28;1.35;;;;;;;11.82;65.48;100105.00;5071766;28;20031;-84
2022/05/31 03:53:41;;;;;;;3.20;1.42;;;;;;;11.83;65.31;100101.44;5070635;28;20017;-84
2022/05/31 03:56:09;;;;;;;1.85;1.17;;;;;;;11.94;64.68;100108.50;5071631;28;20055;-84
2022/05/31 03:58:35;;;;;;;2.10;1.27;;;;;;;11.87;64.50;100105.50;5070588;28;20501;-84
2022/05/31 04:01:01;;;;;;;4.93;1.02;;;;;;;11.57;65.08;100107.88;5071666;28;20020;-83
2022/05/31 04:03:27;;;;;;;3.58;1.45;;;;;;;11.53;65.35;100109.91;5071698;28;20021;-83
2022/05/31 04:05:54;;;;;;;4.45;2.72;;;;;;;11.59;65.48;100116.47;5071997;28;20070;-84
2022/05/31 04:08:20;;;;;;;1.95;1.23;;;;;;;11.69;65.47;100128.81;5071849;28;20502;-84
2022/05/31 04:10:47;;;;;;;3.80;1.25;;;;;;;11.66;66.07;100144.81;5071488;28;20064;-83
2022/05/31 04:13:14;;;;;;;3.08;1.20;;;;;;;11.90;65.74;100142.13;5071516;28;20070;-83
2022/05/31 04:15:40;;;;;;;2.28;1.40;;;;;;;12.08;65.73;100139.00;5070345;28;20089;-83
2022/05/31 04:18:06;;;;;;;6.45;1.70;;;;;;;12.21;65.52;100138.91;5071590;28;20425;-83
2022/05/31 04:20:32;;;;;;;4.40;1.55;;;;;;;12.40;65.49;100132.97;5071544;28;20033;-84
2022/05/31 04:25:43;;;;;;;7.07;1.55;;;;;;;12.64;65.50;100127.56;5071836;28;20040;-84
2022/05/31 04:28:09;;;;;;;2.85;1.45;;;;;;;12.76;65.75;100134.47;5071589;28;20028;-84
2022/05/31 04:30:36;;;;;;;5.18;1.45;;;;;;;12.87;65.74;100130.94;5071496;28;20029;-84
2022/05/31 04:33:01;;;;;;;3.88;1.30;;;;;;;12.83;66.64;100113.72;5071643;28;20027;-85
2022/05/31 04:35:27;;;;;;;2.08;0.98;;;;;;;13.01;66.35;100124.53;5072358;28;20543;-85
2022/05/31 04:37:52;;;;;;;2.10;0.90;;;;;;;13.06;66.80;100115.28;5075577;28;20119;-84
2022/05/31 04:40:17;;;;;;;4.20;1.20;;;;;;;13.11;66.15;100125.44;5075447;28;20025;-84
2022/05/31 04:42:43;;;;;;;4.13;1.20;;;;;;;13.06;66.20;100115.28;5073862;28;20111;-84
2022/05/31 04:45:09;;;;;;;2.10;1.08;;;;;;;13.13;66.21;100112.13;5075196;28;20032;-84
2022/05/31 04:47:35;;;;;;;3.53;1.30;;;;;;;13.19;66.23;100114.25;5075256;28;20048;-84
2022/05/31 04:50:01;;;;;;;2.63;1.10;;;;;;;13.15;66.74;100111.06;5075081;28;20024;-84
2022/05/31 04:52:26;;;;;;;3.80;1.38;;;;;;;13.20;66.89;100110.66;5075111;28;20055;-84
2022/05/31 04:54:52;;;;;;;3.55;1.25;;;;;;;13.26;66.66;100110.97;5075104;28;20466;-84
2022/05/31 04:57:18;;;;;;;5.15;1.45;;;;;;;13.35;66.46;100109.41;5073521;28;20033;-84
2022/05/31 04:59:45;;;;;;;1.98;1.10;;;;;;;13.41;67.11;100114.16;5074990;28;20017;-84
2022/05/31 05:02:11;;;;;;;1.33;1.00;;;;;;;13.45;67.33;100114.75;5074901;28;20166;-84
2022/05/31 05:04:36;;;;;;;2.00;1.13;;;;;;;13.48;67.00;100110.03;5074960;28;20036;-84
2022/05/31 05:07:02;;;;;;;1.35;1.20;;;;;;;13.55;67.05;100109.53;5073681;28;20021;-84
2022/05/31 05:09:27;;;;;;;1.33;0.95;;;;;;;13.60;66.82;100109.97;5074742;28;20031;-84
2022/05/31 05:11:53;;;;;;;2.00;1.15;;;;;;;13.49;66.79;100103.81;5074960;28;20382;-84
2022/05/31 05:14:18;;;;;;;3.28;1.00;;;;;;;13.51;67.18;100108.09;5074651;28;20137;-84
2022/05/31 05:16:44;;;;;;;1.58;0.90;;;;;;;13.65;67.10;100105.13;5074775;28;20435;-84
2022/05/31 05:19:09;;;;;;;2.58;1.10;;;;;;;13.76;66.71;100107.66;5074631;28;20039;-84
2022/05/31 05:21:34;;;;;;;5.53;1.08;;;;;;;13.88;67.26;100111.06;5074493;28;20028;-84
2022/05/31 05:24:00;;;;;;;1.05;1.00;;;;;;;13.96;66.70;100113.91;5074651;28;20111;-84
2022/05/31 05:26:25;;;;;;;1.10;0.75;;;;;;;14.09;66.56;100116.28;5074482;28;20552;-84
2022/05/31 05:31:35;;;;;;;2.58;1.23;;;;;;;14.05;64.93;100122.81;5074276;28;20081;-84
2022/05/31 05:34:02;;;;;;;2.83;1.40;;;;;;;14.16;65.67;100120.06;5074231;28;20025;-85
2022/05/31 05:36:29;;;;;;;2.92;1.00;;;;;;;14.27;64.02;100117.31;5074022;28;20036;-84
2022/05/31 05:38:54;;;;;;;1.90;1.13;;;;;;;14.29;64.23;100114.53;5074315;28;20120;-84
2022/05/31 05:41:21;;;;;;;1.88;1.00;;;;;;;14.31;64.54;100117.03;5074144;28;20155;-84
2022/05/31 05:43:47;;;;;;;3.65;1.13;;;;;;;14.37;64.54;100121.78;5073997;28;20055;-84
2022/05/31 05:46:17;;;;;;;7.05;1.92;;;;;;;14.19;64.22;100117.16;5073570;28;20523;-84
2022/05/31 05:48:43;;;;;;;3.30;1.17;;;;;;;14.16;63.88;100117.44;5072085;28;20057;-84
2022/05/31 05:51:19;;;;;;;2.72;2.17;;;;;;;14.20;64.10;100123.28;5074091;28;20028;-84
2022/05/31 05:53:46;;;;;;;3.85;1.13;;;;;;;14.06;63.93;100124.50;5073910;28;20028;-84
2022/05/31 05:56:12;;;;;;;4.03;1.67;;;;;;;14.04;64.42;100121.13;5072659;28;20386;-84
2022/05/31 05:58:38;;;;;;;4.82;2.20;;;;;;;14.04;65.37;100126.41;5073776;28;20401;-84
2022/05/31 06:01:13;;;;;;;5.85;1.48;;;;;;;14.14;64.80;100129.06;5072637;28;20025;-84
2022/05/31 06:03:50;;;;;;;2.88;1.50;;;;;;;14.08;64.50;100127.84;5073883;28;20536;-84
2022/05/31 06:06:16;;;;;;;4.20;1.25;;;;;;;14.13;65.15;100130.06;5073763;28;20537;-84
2022/05/31 06:09:14;;;;;;;6.57;2.13;;;;;;;14.14;65.43;100129.94;5072477;28;20028;-84
2022/05/31 06:11:55;;;;;;;3.50;1.80;;;;;;;13.96;65.11;100129.72;5068808;28;20036;-84
2022/05/31 06:14:25;;;;;;;2.30;1.50;;;;;;;14.10;65.51;100131.16;5073572;28;20479;-84
2022/05/31 06:16:56;;;;;;;1.92;1.45;;;;;;;14.17;66.08;100126.19;5073455;28;20075;-84
2022/05/31 06:19:26;;;;;;;6.43;2.00;;;;;;;14.23;64.65;100137.03;5072247;28;20058;-84
2022/05/31 06:21:51;;;;;;;4.22;1.73;;;;;;;14.01;64.84;100132.78;5073622;28;20123;-84
2022/05/31 06:24:19;;;;;;;5.72;1.75;;;;;;;13.83;65.13;100135.22;5073227;28;20132;-84
2022/05/31 06:26:45;;;;;;;6.50;2.47;;;;;;;13.94;64.97;100131.66;5073363;28;20032;-84
2022/05/31 06:29:11;;;;;;;4.07;2.53;;;;;;;14.15;65.59;100133.41;5073288;28;20032;-84
2022/05/31 06:31:37;;;;;;;4.78;2.20;;;;;;;14.10;64.76;100136.44;5073062;28;20028;-84
2022/05/31 06:34:03;;;;;;;7.10;2.03;;;;;;;14.07;65.80;100132.25;5073116;28;20032;-84
2022/05/31 06:36:29;;;;;;;5.68;1.55;;;;;;;13.94;66.15;100138.72;5072966;28;20395;-84
2022/05/31 06:38:54;;;;;;;2.63;1.88;;;;;;;14.25;65.22;100135.09;5055295;28;20029;-84
2022/05/31 06:41:20;;;;;;;3.78;1.70;;;;;;;14.35;65.63;100129.00;5071640;28;20548;-84
2022/05/31 06:43:45;;;;;;;3.35;1.80;;;;;;;14.23;65.79;100137.03;5071679;28;20395;-84
2022/05/31 06:46:12;;;;;;;5.60;2.10;;;;;;;14.37;64.90;100140.28;5071727;28;20024;-84
2022/05/31 06:48:37;;;;;;;2.80;1.95;;;;;;;14.39;64.67;100143.59;5072957;28;20017;-84
2022/05/31 06:51:11;;;;;;;8.95;2.22;;;;;;;14.32;65.81;100145.13;5072734;28;20127;-84
2022/05/31 06:58:56;;;;;;;6.32;1.90;;;;;;;14.41;65.29;100160.97;5072417;28;20359;-84
2022/05/31 07:01:30;;;;;;;6.03;1.95;;;;;;;14.27;64.82;100156.09;5072564;28;20027;-84
2022/05/31 07:03:55;;;;;;;2.58;1.92;;;;;;;14.27;65.65;100158.72;5072469;28;20024;-84
2022/05/31 07:06:20;;;;;;;3.85;2.00;;;;;;;14.29;65.02;100167.34;5072632;28;20371;-84
2022/05/31 07:08:46;;;;;;;3.30;2.40;;;;;;;14.36;66.23;100163.22;5071204;28;20451;-84
2022/05/31 07:11:11;;;;;;;3.35;1.70;;;;;;;14.33;66.55;100166.09;5072411;28;20510;-84
2022/05/31 07:13:37;;;;;;;3.28;1.80;;;;;;;14.45;66.28;100162.41;5072295;28;20482;-84
2022/05/31 07:16:02;;;;;;;4.30;1.90;;;;;;;14.56;66.01;100174.69;5072442;28;20067;-84
2022/05/31 07:18:28;;;;;;;2.13;1.73;;;;;;;14.61;65.83;100180.41;5072476;28;20112;-84
2022/05/31 07:20:55;;;;;;;5.63;2.00;;;;;;;14.74;65.23;100181.97;5072451;28;20550;-84
2022/05/31 07:23:21;;;;;;;5.70;2.45;;;;;;;14.64;65.86;100176.66;5070779;28;20028;-84
2022/05/31 07:25:46;;;;;;;3.60;1.67;;;;;;;14.42;66.80;100172.41;5070881;28;20038;-84
2022/05/31 07:28:11;;;;;;;4.45;1.83;;;;;;;14.55;66.55;100177.44;5072151;28;20099;-83
2022/05/31 07:30:36;;;;;;;6.47;1.90;;;;;;;14.64;65.96;100161.63;5072038;28;20116;-83
2022/05/31 07:33:02;;;;;;;4.97;1.98;;;;;;;14.71;65.63;100171.66;5072178;28;20079;-83
2022/05/31 07:35:28;;;;;;;3.65;1.38;;;;;;;14.53;66.06;100167.00;5070775;28;20032;-84
2022/05/31 07:37:53;;;;;;;3.65;1.40;;;;;;;14.66;65.35;100164.97;5071930;28;20107;-84
2022/05/31 07:40:19;;;;;;;8.30;2.15;;;;;;;14.65;64.96;100154.53;5071995;28;20061;-84
2022/05/31 07:42:44;;;;;;;4.82;1.40;;;;;;;14.66;65.47;100156.22;5071909;28;20074;-83
2022/05/31 07:45:11;;;;;;;2.50;1.30;;;;;;;14.84;65.14;100151.09;5071972;28;20055;-84
2022/05/31 07:47:36;;;;;;;2.17;1.38;;;;;;;14.85;65.03;100166.81;5071936;28;20055;-84
2022/05/31 07:50:02;;;;;;;3.78;1.40;;;;;;;15.05;65.59;100159.72;5071949;28;20059;-84
2022/05/31 07:52:27;;;;;;;3.17;1.85;;;;;;;15.22;64.89;100152.06;5072115;28;20091;-83
2022/05/31 07:54:53;;;;;;;4.25;1.65;;;;;;;15.51;63.96;100153.84;5070287;28;20584;-84
2022/05/31 08:00:03;;;;;;;5.70;1.40;;;;;;;16.63;62.66;100157.28;5071871;28;20032;-84
2022/05/31 08:02:29;;;;;;;1.38;0.90;;;;;;;18.24;58.85;100158.84;5071935;28;20350;-84
2022/05/31 08:04:54;;;;;;;3.22;1.45;;;;;;;19.22;55.96;100160.09;5070677;28;20050;-84
2022/05/31 08:07:19;;;;;;;2.05;1.20;;;;;;;19.69;52.29;100162.03;5071711;28;20103;-84
2022/05/31 08:09:45;;;;;;;5.60;1.17;;;;;;;20.29;52.91;100162.53;5071174;28;20027;-84
2022/05/31 08:12:11;;;;;;;3.65;1.00;;;;;;;21.51;51.26;100152.09;5071775;28;20060;-84
2022/05/31 08:14:36;;;;;;;3.90;0.65;;;;;;;21.27;48.32;100159.28;5070219;28;20024;-84
2022/05/31 08:17:03;;;;;;;2.60;0.60;;;;;;;22.42;47.60;100160.75;5071781;28;20162;-84
2022/05/31 08:19:29;;;;;;;3.05;0.57;;;;;;;22.76;44.76;100153.94;5071625;28;20082;-84
2022/05/31 08:21:55;;;;;;;2.13;0.63;;;;;;;25.66;40.57;100154.91;5071204;28;20020;-84
2022/05/31 08:24:21;;;;;;;2.35;0.68;;;;;;;25.47;41.29;100160.09;5070128;28;20039;-84
2022/05/31 08:26:46;;;;;;;1.38;0.30;;;;;;;26.35;39.92;100158.06;5071674;28;20471;-85
2022/05/31 08:29:11;;;;;;;2.92;0.40;;;;;;;25.09;39.34;100160.69;5071493;28;20481;-85
2022/05/31 08:31:37;;;;;;;0.52;0.40;;;;;;;28.18;35.88;100156.19;5070279;28;20031;-85
2022/05/31 08:34:04;;;;;;;1.10;0.32;;;;;;;29.10;32.35;100155.97;5070092;28;20029;-85
2022/05/31 08:36:30;;;;;;;0.73;0.20;;;;;;;26.31;37.36;100161.16;5071159;28;20120;-85
2022/05/31 08:38:55;;;;;;;0.40;0.10;;;;;;;25.05;39.03;100159.44;5071537;28;20112;-85
2022/05/31 08:41:27;;;;;;;0.52;0.20;;;;;;;25.04;40.17;100162.31;5071221;28;20386;-85
2022/05/31 08:43:58;;;;;;;0.50;0.20;;;;;;;24.03;40.75;100160.31;5070077;28;20502;-85
2022/05/31 08:46:27;;;;;;;0.90;0.10;;;;;;;24.79;40.79;100162.91;5071305;28;20028;-85
2022/05/31 08:49:17;;;;;;;0.40;0.10;;;;;;;24.45;39.52;100161.97;5071695;28;20111;-85
2022/05/31 08:52:03;;;;;;;0.60;0.20;;;;;;;23.99;39.52;100159.88;5070072;28;20497;-85
2022/05/31 08:57:44;;;;;;;;;;;;;;;25.83;39.48;100160.66;5071716;28;20568;-85
2022/05/31 09:00:18;;;;;;;0.05;0.05;;;;;;;28.15;35.75;100167.47;5065669;28;19931;-85
2022/05/31 09:03:10;;;;;;;0.80;0.20;;;;;;;29.44;33.88;100157.13;5069934;28;20489;-85
2022/05/31 09:05:42;;;;;;;0.68;0.30;;;;;;;31.18;33.29;100156.22;5071221;28;20021;-85
2022/05/31 09:08:26;;;;;;;0.73;0.20;;;;;;;31.99;30.50;100151.19;5071343;28;20032;-86
2022/05/31 09:10:56;;;;;;;0.77;0.22;;;;;;;32.16;30.48;100153.06;5071003;28;20604;-86
2022/05/31 09:13:30;;;;;;;2.65;0.50;;;;;;;30.54;32.37;100157.28;5071008;28;20111;-86
2022/05/31 09:16:10;;;;;;;0.65;0.28;;;;;;;32.01;30.88;100159.09;5070903;28;20078;-86
2022/05/31 09:18:42;;;;;;;0.70;0.30;;;;;;;31.25;31.64;100153.38;5071013;28;20482;-86
2022/05/31 09:21:37;;;;;;;1.95;0.40;;;;;;;32.15;31.48;100156.81;5071710;28;20017;-86
2022/05/31 09:24:04;;;;;;;1.30;0.30;;;;;;;32.25;29.33;100154.25;5074472;28;20573;-86
2022/05/31 09:26:41;;;;;;;1.23;0.22;;;;;;;32.32;30.15;100149.44;5073193;28;20494;-86
2022/05/31 09:29:26;;;;;;;1.58;0.20;;;;;;;33.56;30.76;100146.72;5074383;28;20024;-86
2022/05/31 09:32:06;;;;;;;2.10;0.40;;;;;;;31.87;32.34;100142.34;5074433;28;20043;-86
2022/05/31 09:34:49;;;;;;;1.15;0.30;;;;;;;31.52;31.49;100148.94;5074439;28;20082;-86
2022/05/31 09:37:22;;;;;;;2.55;0.50;;;;;;;28.82;33.62;100146.63;5074265;28;20033;-86
2022/05/31 09:40:07;;;;;;;1.55;0.40;;;;;;;26.86;35.71;100144.53;5074379;28;20091;-86
2022/05/31 09:42:39;;;;;;;2.00;0.40;;;;;;;27.40;37.21;100149.53;5074037;28;20490;-86
2022/05/31 09:45:17;;;;;;;0.73;0.30;;;;;;;26.82;38.96;100143.31;5074188;28;20037;-86
2022/05/31 09:47:43;;;;;;;0.50;0.40;;;;;;;26.04;38.30;100141.59;5074342;28;20021;-86
2022/05/31 09:50:08;;;;;;;2.03;0.68;;;;;;;23.30;42.58;100142.72;5073025;28;20031;-85
2022/05/31 09:52:47;;;;;;;1.00;0.40;;;;;;;23.20;44.48;100144.88;5073826;28;20368;-86
2022/05/31 09:58:32;;;;;;;1.95;0.65;;;;;;;26.02;39.23;100142.84;5063422;28;20028;-85
2022/05/31 10:01:15;;;;;;;1.92;0.50;;;;;;;24.97;39.53;100145.41;5072479;28;20070;-86
2022/05/31 10:03:44;;;;;;;1.10;0.50;;;;;;;23.21;43.68;100151.09;5073896;28;20024;-85
2022/05/31 10:06:17;;;;;;;1.75;0.40;;;;;;;24.33;43.13;100144.81;5072723;28;20048;-85
2022/05/31 10:08:44;;;;;;;3.90;0.65;;;;;;;26.28;38.75;100141.91;5073876;28;20417;-85
2022/05/31 10:11:20;;;;;;;1.65;0.32;;;;;;;26.42;38.69;100130.06;5072453;28;20079;-85
2022/05/31 10:14:20;;;;;;;2.45;0.45;;;;;;;25.70;39.85;100138.13;5073533;28;20153;-86
2022/05/31 10:16:49;;;;;;;2.47;0.77;;;;;;;26.65;37.55;100134.09;5073556;28;20081;-86
2022/05/31 10:19:41;;;;;;;1.33;0.30;;;;;;;28.66;35.03;100136.50;5073569;28;20515;-86
2022/05/31 10:22:20;;;;;;;1.15;0.65;;;;;;;26.26;37.47;100134.06;5069995;28;20024;-86
2022/05/31 10:24:46;;;;;;;1.13;0.63;;;;;;;24.89;39.10;100143.72;5073283;28;20483;-86
2022/05/31 10:27:19;;;;;;;2.25;0.50;;;;;;;25.67;38.48;100141.25;5073581;28;20055;-86
2022/05/31 10:29:49;;;;;;;0.73;0.32;;;;;;;25.02;39.90;100142.91;5073486;28;20028;-86
2022/05/31 10:32:32;;;;;;;2.45;0.60;;;;;;;24.25;39.88;100148.47;5073224;28;20028;-85
2022/05/31 10:35:09;;;;;;;1.15;0.57;;;;;;;23.65;41.64;100140.06;5073248;28;20017;-86
2022/05/31 10:37:34;;;;;;;1.65;0.60;;;;;;;24.17;41.60;100135.25;5073006;28;20039;-85
2022/05/31 10:40:04;;;;;;;2.90;0.47;;;;;;;24.02;41.21;100137.22;5071888;28;20017;-85
2022/05/31 10:42:33;;;;;;;3.42;0.88;;;;;;;22.81;43.38;100139.97;5073079;28;20060;-85
2022/05/31 10:45:02;;;;;;;1.58;0.70;;;;;;;22.99;44.60;100152.94;5071554;28;20028;-86
2022/05/31 10:47:28;;;;;;;2.33;0.70;;;;;;;22.55;46.66;100152.03;5071668;28;20059;-86
2022/05/31 10:49:54;;;;;;;1.92;0.73;;;;;;;21.33;48.58;100153.22;5072986;28;20451;-86
2022/05/31 10:52:40;;;;;;;3.90;0.88;;;;;;;20.37;50.78;100152.66;5072862;28;20044;-86
2022/05/31 10:55:19;;;;;;;6.50;1.67;;;;;;;19.50;54.14;100162.41;5072662;28;20016;-86
2022/05/31 10:57:59;;;;;;;6.55;0.90;;;;;;;20.14;53.36;100151.75;5071432;28;20020;-85
2022/05/31 11:00:25;;;;;;;1.90;0.82;;;;;;;19.39;54.98;100152.91;5071534;28;20035;-86
2022/05/31 11:03:02;;;;;;;1.45;0.80;;;;;;;19.92;52.26;100159.50;5072621;28;20100;-86
2022/05/31 11:05:55;;;;;;;1.88;0.60;;;;;;;20.00;52.25;100162.16;5071188;28;20020;-85
2022/05/31 11:11:37;;;;;;;0.68;0.50;;;;;;;22.22;49.02;100162.34;5072444;28;20047;-85
2022/05/31 11:14:24;;;;;;;1.38;0.60;;;;;;;22.09;47.71;100157.63;5071088;28;20334;-85
2022/05/31 11:17:18;;;;;;;0.73;0.30;;;;;;;21.52;47.52;100161.75;5072159;28;20029;-85
2022/05/31 11:20:02;;;;;;;0.55;0.45;;;;;;;20.78;47.81;100164.97;5071062;28;20379;-85
2022/05/31 11:23:00;;;;;;;1.13;0.50;;;;;;;20.03;51.98;100166.31;5072098;28;20020;-86
2022/05/31 11:25:30;;;;;;;0.75;0.55;;;;;;;20.21;51.84;100174.06;5072486;28;20501;-85
2022/05/31 11:28:42;;;;;;;0.77;0.60;;;;;;;20.04;51.69;100173.28;5072030;28;20024;-85
2022/05/31 11:31:27;;;;;;;2.13;0.98;;;;;;;19.60;53.76;100192.34;5072373;28;20103;-86
2022/05/31 11:34:11;;;;;;;4.80;0.95;;;;;;;18.55;55.84;100187.53;5072111;28;20024;-85
2022/05/31 11:37:04;;;;;;;2.95;0.90;;;;;;;18.28;55.90;100185.13;5071892;28;20040;-86
2022/05/31 11:39:59;;;;;;;3.13;1.35;;;;;;;17.49;59.16;100200.22;5072164;28;20020;-85
2022/05/31 11:43:01;;;;;;;3.40;1.35;;;;;;;18.07;58.67;100196.13;5067107;28;20089;-85
2022/05/31 11:45:50;;;;;;;2.25;1.42;;;;;;;19.14;56.93;100197.34;5071023;28;20067;-85
2022/05/31 11:48:30;;;;;;;1.65;1.33;;;;;;;18.16;57.03;100197.84;5072047;28;20273;-85
2022/05/31 11:51:10;;;;;;;6.93;1.33;;;;;;;18.55;56.89;100192.84;5071860;28;20471;-86
2022/05/31 11:54:00;;;;;;;3.22;1.40;;;;;;;19.47;54.00;100194.66;5071763;28;20035;-85
2022/05/31 11:56:28;;;;;;;1.92;1.20;;;;;;;18.93;54.16;100192.47;5071533;28;20032;-85
2022/05/31 11:59:02;;;;;;;4.00;1.17;;;;;;;19.26;54.04;100189.88;5072055;28;20059;-85
2022/05/31 12:01:46;;;;;;;2.85;1.40;;;;;;;19.38;55.47;100189.34;5071767;28;20013;-85